Time;durP1;ratioP1;P1;durP2;ratioP2;P2;SDS_P1;SDS_P2;PMS_P1;PMS_P2;Temp;Humidity;BMP_temperature;BMP_pressure;BME280_temperature;BME280_humidity;BME280_pressure;Samples;Min_cycle;Max_cycle;Signal;HPM_P1;HPM_P2
2022/10/25 00:01:13;;;;;;;16.80;9.52;;;;;;;;;;5032091;28;20025;-77
2022/10/25 00:03:39;;;;;;;14.43;8.82;;;;;;;;;;5042110;28;20025;-77
2022/10/25 00:06:05;;;;;;;14.80;8.98;;;;;;;;;;5053000;28;20033;-77
2022/10/25 00:08:31;;;;;;;14.13;8.90;;;;;;;;;;5038519;28;20064;-77
2022/10/25 00:10:57;;;;;;;15.32;9.25;;;;;;;;;;5032532;28;20057;-77
2022/10/25 00:13:23;;;;;;;13.82;8.95;;;;;;;;;;5020243;28;20437;-77
2022/10/25 00:15:49;;;;;;;13.57;8.70;;;;;;;;;;5034990;28;20091;-78
2022/10/25 00:18:15;;;;;;;13.65;8.93;;;;;;;;;;5041756;28;20516;-77
2022/10/25 00:20:41;;;;;;;14.13;8.63;;;;;;;;;;5038707;28;20019;-79
2022/10/25 00:23:07;;;;;;;15.25;9.32;;;;;;;;;;5036986;28;20101;-79
2022/10/25 00:25:33;;;;;;;14.75;9.00;;;;;;;;;;5036791;28;20087;-79
2022/10/25 00:27:59;;;;;;;13.05;7.93;;;;;;;;;;5042222;28;20062;-79
2022/10/25 00:30:25;;;;;;;15.40;8.65;;;;;;;;;;5047658;28;20108;-77
2022/10/25 00:32:52;;;;;;;14.27;8.05;;;;;;;;;;5040631;28;20033;-77
2022/10/25 00:35:18;;;;;;;14.48;8.40;;;;;;;;;;5031794;28;20032;-77
2022/10/25 00:37:44;;;;;;;12.73;8.38;;;;;;;;;;5032322;28;20366;-77
2022/10/25 00:40:10;;;;;;;14.07;8.32;;;;;;;;;;5033442;28;20032;-77
2022/10/25 00:42:36;;;;;;;13.05;8.50;;;;;;;;;;5032514;28;20551;-77
2022/10/25 00:45:12;;;;;;;13.38;8.60;;;;;;;;;;5031724;28;20069;-77
2022/10/25 00:47:46;;;;;;;15.07;8.32;;;;;;;;;;5031801;28;20032;-79
2022/10/25 00:50:30;;;;;;;13.57;8.65;;;;;;;;;;5026207;28;20021;-76
2022/10/25 00:53:00;;;;;;;13.75;8.73;;;;;;;;;;5022479;28;20436;-77
2022/10/25 00:55:27;;;;;;;16.00;8.27;;;;;;;;;;5020853;28;20120;-79
2022/10/25 00:58:06;;;;;;;12.82;8.60;;;;;;;;;;5036654;28;20017;-79
2022/10/25 01:00:32;;;;;;;15.00;8.57;;;;;;;;;;5035893;28;20021;-79
2022/10/25 01:02:58;;;;;;;15.18;9.93;;;;;;;;;;5032783;28;20432;-77
2022/10/25 01:05:24;;;;;;;15.93;9.88;;;;;;;;;;5034872;28;20024;-77
2022/10/25 01:07:50;;;;;;;16.20;9.77;;;;;;;;;;5040312;28;20030;-78
2022/10/25 01:10:16;;;;;;;16.10;10.07;;;;;;;;;;5031913;28;20432;-78
2022/10/25 01:12:43;;;;;;;17.85;9.65;;;;;;;;;;5031446;28;20489;-76
2022/10/25 01:15:09;;;;;;;16.95;9.52;;;;;;;;;;5031620;28;20036;-77
2022/10/25 01:17:44;;;;;;;18.90;10.00;;;;;;;;;;5031383;28;20021;-79
2022/10/25 01:20:13;;;;;;;15.20;9.15;;;;;;;;;;5038638;28;20046;-79
2022/10/25 01:22:42;;;;;;;14.75;8.48;;;;;;;;;;5057228;28;20043;-79
2022/10/25 01:25:08;;;;;;;14.30;8.75;;;;;;;;;;5030743;28;20512;-79
2022/10/25 01:27:46;;;;;;;12.77;8.05;;;;;;;;;;5026516;28;20029;-77
2022/10/25 01:30:21;;;;;;;13.73;8.15;;;;;;;;;;5043767;28;20029;-77
2022/10/25 01:33:05;;;;;;;14.43;8.02;;;;;;;;;;5031036;28;20078;-77
2022/10/25 01:35:51;;;;;;;12.95;8.25;;;;;;;;;;5026605;28;20165;-77
2022/10/25 01:38:26;;;;;;;14.60;8.32;;;;;;;;;;5030765;28;20060;-79
2022/10/25 01:41:31;;;;;;;12.43;8.45;;;;;;;;;;5028740;28;20032;-79
2022/10/25 01:43:57;;;;;;;13.40;7.90;;;;;;;;;;4956197;29;20043;-80
2022/10/25 01:46:35;;;;;;;13.57;8.02;;;;;;;;;;4953820;29;20058;-79
2022/10/25 01:49:03;;;;;;;15.75;8.43;;;;;;;;;;4955469;29;20050;-79
2022/10/25 01:51:29;;;;;;;15.18;9.20;;;;;;;;;;4955620;29;20478;-79
2022/10/25 01:53:55;;;;;;;13.65;8.27;;;;;;;;;;4953699;29;20058;-79
2022/10/25 01:56:32;;;;;;;14.88;8.73;;;;;;;;;;4951010;29;20047;-79
2022/10/25 01:59:04;;;;;;;14.18;7.95;;;;;;;;;;4935442;29;20031;-77
2022/10/25 02:01:36;;;;;;;13.80;7.83;;;;;;;;;;4949989;29;20083;-77
2022/10/25 02:04:08;;;;;;;13.40;7.60;;;;;;;;;;4949137;29;20032;-77
2022/10/25 02:06:37;;;;;;;13.73;8.23;;;;;;;;;;4949911;29;20031;-77
2022/10/25 02:09:06;;;;;;;11.65;7.57;;;;;;;;;;4934529;29;20043;-77
2022/10/25 02:11:33;;;;;;;14.80;7.70;;;;;;;;;;4950467;28;20062;-77
2022/10/25 02:14:14;;;;;;;11.88;7.40;;;;;;;;;;4964823;28;20501;-77
2022/10/25 02:16:43;;;;;;;11.95;7.13;;;;;;;;;;5031990;28;20068;-76
2022/10/25 02:19:12;;;;;;;13.30;7.45;;;;;;;;;;5034853;28;20022;-77
2022/10/25 02:21:38;;;;;;;11.10;7.07;;;;;;;;;;5049247;28;20158;-77
2022/10/25 02:24:07;;;;;;;12.30;7.43;;;;;;;;;;5030869;28;20525;-77
2022/10/25 02:26:34;;;;;;;10.07;7.00;;;;;;;;;;5034301;28;20087;-79
2022/10/25 02:29:02;;;;;;;10.98;7.10;;;;;;;;;;5033634;28;20586;-77
2022/10/25 02:31:30;;;;;;;12.30;6.45;;;;;;;;;;5034852;28;20025;-79
2022/10/25 02:33:56;;;;;;;9.85;5.93;;;;;;;;;;5051481;28;20071;-77
2022/10/25 02:36:23;;;;;;;10.38;6.53;;;;;;;;;;5039785;28;20041;-77
2022/10/25 02:38:50;;;;;;;10.70;6.60;;;;;;;;;;5039514;28;20094;-77
2022/10/25 02:41:16;;;;;;;11.95;6.57;;;;;;;;;;5033310;28;20477;-78
2022/10/25 02:43:42;;;;;;;10.70;5.80;;;;;;;;;;5034509;28;20029;-78
2022/10/25 02:46:09;;;;;;;8.52;5.53;;;;;;;;;;5035539;28;20135;-77
2022/10/25 02:48:36;;;;;;;9.60;5.38;;;;;;;;;;5033892;28;20381;-77
2022/10/25 02:51:02;;;;;;;7.97;4.82;;;;;;;;;;5033133;28;20033;-77
2022/10/25 02:53:29;;;;;;;10.80;5.90;;;;;;;;;;5034587;28;20025;-77
2022/10/25 02:56:01;;;;;;;9.07;5.25;;;;;;;;;;5033848;28;20021;-77
2022/10/25 02:58:28;;;;;;;9.57;5.15;;;;;;;;;;5033387;28;20029;-77
2022/10/25 03:00:54;;;;;;;9.15;4.88;;;;;;;;;;5037486;28;20029;-77
2022/10/25 03:03:20;;;;;;;9.82;5.30;;;;;;;;;;5034637;28;20052;-79
2022/10/25 03:05:46;;;;;;;10.68;5.30;;;;;;;;;;5034362;28;20033;-77
2022/10/25 03:08:12;;;;;;;7.88;5.00;;;;;;;;;;5033814;28;20107;-77
2022/10/25 03:10:38;;;;;;;8.30;4.60;;;;;;;;;;5039794;28;20052;-77
2022/10/25 03:13:04;;;;;;;9.35;5.30;;;;;;;;;;5032070;28;20026;-79
2022/10/25 03:15:30;;;;;;;9.35;5.20;;;;;;;;;;5048416;28;20083;-79
2022/10/25 03:17:56;;;;;;;8.90;4.95;;;;;;;;;;5019832;28;20029;-77
2022/10/25 03:20:22;;;;;;;8.07;4.70;;;;;;;;;;5027307;28;20034;-77
2022/10/25 03:22:48;;;;;;;10.85;5.30;;;;;;;;;;5030162;28;20021;-77
2022/10/25 03:25:14;;;;;;;9.70;5.00;;;;;;;;;;5032939;28;20099;-77
2022/10/25 03:27:40;;;;;;;8.20;5.50;;;;;;;;;;5015550;28;20026;-78
2022/10/25 03:30:07;;;;;;;9.27;6.18;;;;;;;;;;5016372;28;20662;-77
2022/10/25 03:32:33;;;;;;;11.27;5.72;;;;;;;;;;5014303;28;20034;-77
2022/10/25 03:34:59;;;;;;;8.93;5.18;;;;;;;;;;5015611;28;20056;-79
2022/10/25 03:37:25;;;;;;;9.70;5.70;;;;;;;;;;5034175;28;20033;-77
2022/10/25 03:39:52;;;;;;;9.48;5.10;;;;;;;;;;5052727;28;20024;-77
2022/10/25 03:42:19;;;;;;;10.38;5.90;;;;;;;;;;5036233;28;20045;-77
2022/10/25 03:44:45;;;;;;;10.23;5.93;;;;;;;;;;5032495;28;20026;-78
2022/10/25 03:47:11;;;;;;;10.68;5.93;;;;;;;;;;5037493;28;20024;-79
2022/10/25 03:49:37;;;;;;;10.93;5.97;;;;;;;;;;5036960;28;20025;-79
2022/10/25 03:52:05;;;;;;;10.32;5.35;;;;;;;;;;5028054;28;20656;-79
2022/10/25 03:54:31;;;;;;;9.77;6.55;;;;;;;;;;5028930;28;20072;-79
2022/10/25 03:56:57;;;;;;;11.43;6.30;;;;;;;;;;5035343;28;20137;-79
2022/10/25 03:59:24;;;;;;;11.23;6.53;;;;;;;;;;5030137;28;20675;-79
2022/10/25 04:01:50;;;;;;;9.93;6.20;;;;;;;;;;5036709;28;20072;-80
2022/10/25 04:04:16;;;;;;;10.30;6.30;;;;;;;;;;5036977;28;20018;-78
2022/10/25 04:06:42;;;;;;;10.57;6.68;;;;;;;;;;5036589;28;20499;-80
2022/10/25 04:09:08;;;;;;;11.75;6.95;;;;;;;;;;5036494;28;20029;-80
2022/10/25 04:11:34;;;;;;;14.27;7.57;;;;;;;;;;5037196;28;20033;-79
2022/10/25 04:14:00;;;;;;;13.40;7.95;;;;;;;;;;5048134;28;20033;-79
2022/10/25 04:16:26;;;;;;;15.25;8.48;;;;;;;;;;5036459;28;20025;-79
2022/10/25 04:18:52;;;;;;;12.88;7.97;;;;;;;;;;5019682;28;20036;-79
2022/10/25 04:21:19;;;;;;;13.35;8.40;;;;;;;;;;5032515;28;20345;-79
2022/10/25 04:23:45;;;;;;;13.00;7.55;;;;;;;;;;5036691;28;20049;-79
2022/10/25 04:26:16;;;;;;;11.52;7.63;;;;;;;;;;5037896;28;20029;-79
2022/10/25 04:28:42;;;;;;;14.15;8.30;;;;;;;;;;5045427;28;20026;-79
2022/10/25 04:31:08;;;;;;;13.63;8.20;;;;;;;;;;5038292;28;20508;-79
2022/10/25 04:33:34;;;;;;;11.82;7.10;;;;;;;;;;5036687;28;20030;-79
2022/10/25 04:36:00;;;;;;;12.52;6.97;;;;;;;;;;5023433;28;20030;-79
2022/10/25 04:38:26;;;;;;;14.57;7.65;;;;;;;;;;5017380;28;20018;-79
2022/10/25 04:40:55;;;;;;;11.85;7.68;;;;;;;;;;5021966;28;20029;-79
2022/10/25 04:43:22;;;;;;;11.73;6.88;;;;;;;;;;5039308;28;20033;-80
2022/10/25 04:45:48;;;;;;;12.32;6.53;;;;;;;;;;5037151;28;20033;-80
2022/10/25 04:48:14;;;;;;;10.25;6.93;;;;;;;;;;5038774;28;20052;-79
2022/10/25 04:50:40;;;;;;;14.25;7.20;;;;;;;;;;5028363;28;20076;-80
2022/10/25 04:53:06;;;;;;;11.40;6.80;;;;;;;;;;5023618;28;20029;-80
2022/10/25 04:55:32;;;;;;;12.85;6.97;;;;;;;;;;5035320;28;20293;-79
2022/10/25 04:57:58;;;;;;;10.73;6.07;;;;;;;;;;5038289;28;20110;-79
2022/10/25 05:00:25;;;;;;;9.63;6.32;;;;;;;;;;5056596;28;20033;-80
2022/10/25 05:02:51;;;;;;;10.65;6.95;;;;;;;;;;5049409;28;20022;-79
2022/10/25 05:05:18;;;;;;;10.07;6.28;;;;;;;;;;5035329;28;20386;-79
2022/10/25 05:07:44;;;;;;;10.40;6.35;;;;;;;;;;5041285;28;20508;-78
2022/10/25 05:10:11;;;;;;;10.07;6.05;;;;;;;;;;5043925;28;20041;-78
2022/10/25 05:12:38;;;;;;;8.73;4.22;;;;;;;;;;5021799;28;20072;-79
2022/10/25 05:15:05;;;;;;;8.82;5.15;;;;;;;;;;5034360;28;20021;-79
2022/10/25 05:17:31;;;;;;;8.35;5.10;;;;;;;;;;5038988;28;20055;-79
2022/10/25 05:19:57;;;;;;;9.60;5.43;;;;;;;;;;5044030;28;20021;-80
2022/10/25 05:22:23;;;;;;;10.02;5.47;;;;;;;;;;5018513;28;20382;-81
2022/10/25 05:24:49;;;;;;;8.93;5.53;;;;;;;;;;5035652;28;20057;-79
2022/10/25 05:27:15;;;;;;;9.10;5.78;;;;;;;;;;5043222;28;20084;-81
2022/10/25 05:29:41;;;;;;;9.20;5.35;;;;;;;;;;5039265;28;20028;-80
2022/10/25 05:32:07;;;;;;;7.93;4.20;;;;;;;;;;5046773;28;20024;-80
2022/10/25 05:34:33;;;;;;;10.40;4.82;;;;;;;;;;5042342;28;20393;-80
2022/10/25 05:36:59;;;;;;;8.15;4.25;;;;;;;;;;5030353;28;20029;-80
2022/10/25 05:39:25;;;;;;;7.32;3.80;;;;;;;;;;5029538;28;20030;-76
2022/10/25 05:41:52;;;;;;;6.97;3.78;;;;;;;;;;5048610;28;20063;-85
2022/10/25 05:44:18;;;;;;;5.82;2.88;;;;;;;;;;5043921;28;20046;-85
2022/10/25 05:46:44;;;;;;;6.13;2.95;;;;;;;;;;5037355;28;20036;-85
2022/10/25 05:49:11;;;;;;;4.60;2.50;;;;;;;;;;5041724;28;20068;-87
2022/10/25 05:51:38;;;;;;;6.70;3.10;;;;;;;;;;5041928;28;20497;-87
2022/10/25 05:54:05;;;;;;;7.55;3.25;;;;;;;;;;5038495;28;20128;-85
2022/10/25 05:56:32;;;;;;;5.30;2.63;;;;;;;;;;5042645;28;20025;-85
2022/10/25 05:59:01;;;;;;;6.28;3.28;;;;;;;;;;5044677;28;20089;-85
2022/10/25 06:01:27;;;;;;;8.65;3.20;;;;;;;;;;5038224;28;20021;-85
2022/10/25 06:03:54;;;;;;;5.38;3.15;;;;;;;;;;5041904;28;20032;-85
2022/10/25 06:06:20;;;;;;;5.50;2.70;;;;;;;;;;5044131;28;20032;-85
2022/10/25 06:08:47;;;;;;;5.20;2.80;;;;;;;;;;5054378;28;20024;-85
2022/10/25 06:11:14;;;;;;;5.47;3.10;;;;;;;;;;5045095;28;20038;-85
2022/10/25 06:13:41;;;;;;;7.18;3.63;;;;;;;;;;5040077;28;20034;-85
2022/10/25 06:16:08;;;;;;;5.70;2.90;;;;;;;;;;5032595;28;20034;-85
2022/10/25 06:18:35;;;;;;;7.28;3.97;;;;;;;;;;5050187;28;20495;-85
2022/10/25 06:21:05;;;;;;;5.82;3.10;;;;;;;;;;5048303;28;20020;-85
2022/10/25 06:23:31;;;;;;;7.90;4.10;;;;;;;;;;5038250;28;20044;-85
2022/10/25 06:26:16;;;;;;;6.55;3.65;;;;;;;;;;5043198;28;20040;-84
2022/10/25 06:28:42;;;;;;;8.35;3.60;;;;;;;;;;5043496;28;20044;-84
2022/10/25 06:31:11;;;;;;;7.22;3.60;;;;;;;;;;5045285;28;20026;-84
2022/10/25 06:33:37;;;;;;;8.15;3.42;;;;;;;;;;5044296;28;20081;-84
2022/10/25 06:36:04;;;;;;;6.70;3.47;;;;;;;;;;5049885;28;20033;-84
2022/10/25 06:38:30;;;;;;;6.57;4.30;;;;;;;;;;5060672;28;20018;-85
2022/10/25 06:41:00;;;;;;;8.02;3.78;;;;;;;;;;5031148;28;20049;-84
2022/10/25 06:43:26;;;;;;;5.72;3.42;;;;;;;;;;5057744;28;20026;-84
2022/10/25 06:45:52;;;;;;;7.72;4.18;;;;;;;;;;5058974;28;20033;-84
2022/10/25 06:48:21;;;;;;;6.32;3.53;;;;;;;;;;5071325;28;20389;-83
2022/10/25 06:50:48;;;;;;;7.72;4.28;;;;;;;;;;5045626;28;20209;-84
2022/10/25 06:53:14;;;;;;;7.50;4.20;;;;;;;;;;5043222;28;20072;-85
2022/10/25 06:55:45;;;;;;;8.32;4.80;;;;;;;;;;5045123;28;20501;-85
2022/10/25 06:58:11;;;;;;;7.68;4.60;;;;;;;;;;5061282;28;20021;-84
2022/10/25 07:00:37;;;;;;;8.23;4.18;;;;;;;;;;5047892;28;20017;-84
2022/10/25 07:03:03;;;;;;;8.38;4.30;;;;;;;;;;5030882;28;20088;-84
2022/10/25 07:05:29;;;;;;;5.60;3.38;;;;;;;;;;5050755;28;20031;-84
2022/10/25 07:07:55;;;;;;;6.45;3.45;;;;;;;;;;5049645;28;20060;-85
2022/10/25 07:10:21;;;;;;;7.30;3.50;;;;;;;;;;5049439;28;20029;-84
2022/10/25 07:12:47;;;;;;;5.47;2.90;;;;;;;;;;5048371;28;20026;-83
2022/10/25 07:15:13;;;;;;;4.57;2.55;;;;;;;;;;5046432;28;20037;-83
2022/10/25 07:17:39;;;;;;;5.63;2.20;;;;;;;;;;5030005;28;20037;-83
2022/10/25 07:20:06;;;;;;;4.65;1.70;;;;;;;;;;5029477;28;20546;-84
2022/10/25 07:22:32;;;;;;;5.00;1.90;;;;;;;;;;5028372;28;20017;-84
2022/10/25 07:24:58;;;;;;;5.03;1.80;;;;;;;;;;5034522;28;20456;-83
2022/10/25 07:27:24;;;;;;;3.70;1.25;;;;;;;;;;5049166;28;20033;-83
2022/10/25 07:29:50;;;;;;;12.60;3.13;;;;;;;;;;5047604;28;20029;-83
2022/10/25 07:32:16;;;;;;;4.95;1.70;;;;;;;;;;5031198;28;20017;-83
2022/10/25 07:34:42;;;;;;;4.20;1.30;;;;;;;;;;5030493;28;20380;-83
2022/10/25 07:37:11;;;;;;;4.97;1.30;;;;;;;;;;5049809;28;20117;-84
2022/10/25 07:39:38;;;;;;;2.90;1.10;;;;;;;;;;5047308;28;20022;-83
2022/10/25 07:42:04;;;;;;;4.15;1.10;;;;;;;;;;5047524;28;20033;-80
2022/10/25 07:44:30;;;;;;;2.03;1.10;;;;;;;;;;5047204;28;20068;-83
2022/10/25 07:46:56;;;;;;;3.22;1.00;;;;;;;;;;5047527;28;20025;-83
2022/10/25 07:49:22;;;;;;;3.72;1.15;;;;;;;;;;5051072;28;20034;-83
2022/10/25 07:51:48;;;;;;;4.32;1.17;;;;;;;;;;5046448;28;20022;-82
2022/10/25 07:54:14;;;;;;;4.13;1.30;;;;;;;;;;5045100;28;20101;-83
2022/10/25 07:56:40;;;;;;;5.93;1.02;;;;;;;;;;5047197;28;20470;-83
2022/10/25 07:59:06;;;;;;;3.33;1.05;;;;;;;;;;5045886;28;20036;-83
2022/10/25 08:01:32;;;;;;;3.63;1.40;;;;;;;;;;5045483;28;20033;-82
2022/10/25 08:03:58;;;;;;;2.85;0.90;;;;;;;;;;5047623;28;20017;-81
2022/10/25 08:06:24;;;;;;;3.97;1.20;;;;;;;;;;5047116;28;20029;-82
2022/10/25 08:08:51;;;;;;;2.65;1.02;;;;;;;;;;5045511;28;20618;-82
2022/10/25 08:11:17;;;;;;;3.80;1.13;;;;;;;;;;5028158;28;20052;-82
2022/10/25 08:13:43;;;;;;;3.55;1.23;;;;;;;;;;5047769;28;20018;-83
2022/10/25 08:16:09;;;;;;;3.22;1.10;;;;;;;;;;5046264;28;20505;-81
2022/10/25 08:18:35;;;;;;;4.07;0.98;;;;;;;;;;5046919;28;20017;-82
2022/10/25 08:21:01;;;;;;;3.13;0.90;;;;;;;;;;5046693;28;20056;-82
2022/10/25 08:23:28;;;;;;;2.88;1.00;;;;;;;;;;5043088;28;20042;-81
2022/10/25 08:25:56;;;;;;;3.28;0.80;;;;;;;;;;5026610;28;20029;-83
2022/10/25 08:28:22;;;;;;;2.83;0.88;;;;;;;;;;5039133;28;20030;-83
2022/10/25 08:30:48;;;;;;;3.05;1.02;;;;;;;;;;5045433;28;20461;-83
2022/10/25 08:33:14;;;;;;;3.10;1.10;;;;;;;;;;5043825;28;20092;-81
2022/10/25 08:35:40;;;;;;;2.50;0.90;;;;;;;;;;5045566;28;20029;-81
2022/10/25 08:38:07;;;;;;;3.00;1.20;;;;;;;;;;5044140;28;20025;-81
2022/10/25 08:40:43;;;;;;;2.65;0.82;;;;;;;;;;5046671;28;20041;-82
2022/10/25 08:43:09;;;;;;;2.28;0.90;;;;;;;;;;5045262;28;20017;-81
2022/10/25 08:45:36;;;;;;;3.00;1.10;;;;;;;;;;5044431;28;20033;-82
2022/10/25 08:48:06;;;;;;;2.47;0.80;;;;;;;;;;5052771;28;20033;-83
2022/10/25 08:50:39;;;;;;;2.58;0.73;;;;;;;;;;5061920;28;20021;-82
2022/10/25 08:53:08;;;;;;;2.13;0.82;;;;;;;;;;5042995;28;20102;-82
2022/10/25 08:55:35;;;;;;;3.20;1.02;;;;;;;;;;5043316;28;20026;-82
2022/10/25 08:58:07;;;;;;;3.33;1.00;;;;;;;;;;5042143;28;20033;-81
2022/10/25 09:00:37;;;;;;;2.53;1.20;;;;;;;;;;5043100;28;20052;-80
2022/10/25 09:03:04;;;;;;;4.25;1.00;;;;;;;;;;5044040;28;20029;-81
2022/10/25 09:05:37;;;;;;;5.45;1.00;;;;;;;;;;5040431;28;20018;-80
2022/10/25 09:08:08;;;;;;;2.67;1.02;;;;;;;;;;5022917;28;20056;-81
2022/10/25 09:10:37;;;;;;;3.50;0.90;;;;;;;;;;5023469;28;20052;-81
2022/10/25 09:13:09;;;;;;;3.22;1.00;;;;;;;;;;5022940;28;20030;-82
2022/10/25 09:15:35;;;;;;;3.35;0.93;;;;;;;;;;5038593;28;20031;-81
2022/10/25 09:18:04;;;;;;;3.17;0.80;;;;;;;;;;5051043;28;20029;-81
2022/10/25 09:20:35;;;;;;;2.65;0.80;;;;;;;;;;5054808;28;20041;-81
2022/10/25 09:23:15;;;;;;;2.25;0.75;;;;;;;;;;5042417;28;20044;-81
2022/10/25 09:26:04;;;;;;;3.70;0.90;;;;;;;;;;5042491;28;20038;-81
2022/10/25 09:28:50;;;;;;;3.20;1.13;;;;;;;;;;5044497;28;20029;-81
2022/10/25 09:31:18;;;;;;;4.13;1.02;;;;;;;;;;5026533;28;20021;-80
2022/10/25 09:33:45;;;;;;;2.78;0.82;;;;;;;;;;5044562;28;20033;-81
2022/10/25 09:36:12;;;;;;;2.97;1.00;;;;;;;;;;5041622;28;20038;-81
2022/10/25 09:38:41;;;;;;;9.82;1.67;;;;;;;;;;5045412;28;20108;-83
2022/10/25 09:41:14;;;;;;;3.15;0.90;;;;;;;;;;5044528;28;20033;-80
2022/10/25 09:43:43;;;;;;;2.97;0.90;;;;;;;;;;5044636;28;20083;-80
2022/10/25 09:46:15;;;;;;;2.90;1.00;;;;;;;;;;5044504;28;20089;-81
2022/10/25 09:48:42;;;;;;;;;;;;;;;;;;5045097;28;20242;-81
2022/10/25 09:51:27;;;;;;;2.67;0.88;;;;;;;;;;5041299;28;20243;-80
2022/10/25 09:53:54;;;;;;;2.42;0.85;;;;;;;;;;5041590;28;20112;-80
2022/10/25 09:56:20;;;;;;;4.25;0.80;;;;;;;;;;5040644;28;20053;-80
2022/10/25 09:58:47;;;;;;;4.47;1.27;;;;;;;;;;5042537;28;20101;-80
2022/10/25 10:01:24;;;;;;;1.85;0.80;;;;;;;;;;5042903;28;20055;-80
2022/10/25 10:03:50;;;;;;;3.28;0.90;;;;;;;;;;5048168;28;20032;-80
2022/10/25 10:06:28;;;;;;;2.70;0.73;;;;;;;;;;5052387;28;20009;-80
2022/10/25 10:08:57;;;;;;;3.22;1.00;;;;;;;;;;5058041;28;20044;-80
2022/10/25 10:11:24;;;;;;;3.25;1.00;;;;;;;;;;5053754;28;20112;-80
2022/10/25 10:13:56;;;;;;;3.13;1.00;;;;;;;;;;5042631;28;20025;-80
2022/10/25 10:16:22;;;;;;;4.28;0.90;;;;;;;;;;5042406;28;20481;-80
2022/10/25 10:18:48;;;;;;;3.60;0.90;;;;;;;;;;5023728;28;20049;-80
2022/10/25 10:21:22;;;;;;;4.28;1.15;;;;;;;;;;5022155;28;20032;-80
2022/10/25 10:23:49;;;;;;;2.50;0.75;;;;;;;;;;5039967;28;20037;-80
2022/10/25 10:26:34;;;;;;;2.28;0.80;;;;;;;;;;5036581;28;20329;-80
2022/10/25 10:29:05;;;;;;;2.83;0.80;;;;;;;;;;5025152;28;20030;-80
2022/10/25 10:31:36;;;;;;;3.53;0.90;;;;;;;;;;5042422;28;20021;-81
2022/10/25 10:34:21;;;;;;;4.85;1.38;;;;;;;;;;5042581;28;20496;-79
2022/10/25 10:36:49;;;;;;;4.80;1.00;;;;;;;;;;5024050;28;20125;-80
2022/10/25 10:42:21;;;;;;;2.17;0.90;;;;;;;;;;5041037;28;20234;-80
2022/10/25 10:45:08;;;;;;;3.42;1.00;;;;;;;;;;5040944;28;20463;-79
2022/10/25 10:47:50;;;;;;;2.25;1.00;;;;;;;;;;5042049;28;20018;-80
2022/10/25 10:50:23;;;;;;;3.33;0.90;;;;;;;;;;5041293;28;20483;-80
2022/10/25 10:52:55;;;;;;;1.65;0.70;;;;;;;;;;5039530;28;20029;-79
2022/10/25 10:55:29;;;;;;;2.65;1.10;;;;;;;;;;5046434;28;20029;-80
2022/10/25 10:57:57;;;;;;;2.47;0.70;;;;;;;;;;5041109;28;20025;-80
2022/10/25 11:00:25;;;;;;;2.90;0.93;;;;;;;;;;5055557;28;20353;-81
2022/10/25 11:02:51;;;;;;;3.00;1.02;;;;;;;;;;5065863;28;20052;-81
2022/10/25 11:05:19;;;;;;;2.67;0.80;;;;;;;;;;5047769;28;20028;-81
2022/10/25 11:07:52;;;;;;;3.40;0.95;;;;;;;;;;5046249;28;20025;-81
2022/10/25 11:10:18;;;;;;;;;;;;;;;;;;5057170;28;20048;-81
2022/10/25 11:12:44;;;;;;;3.42;0.80;;;;;;;;;;5047286;28;20369;-80
2022/10/25 11:15:11;;;;;;;2.85;1.00;;;;;;;;;;5042547;28;20033;-80
2022/10/25 11:17:39;;;;;;;3.38;0.90;;;;;;;;;;5025360;28;20029;-80
2022/10/25 11:20:13;;;;;;;3.00;1.00;;;;;;;;;;5054002;28;20091;-82
2022/10/25 11:22:44;;;;;;;2.80;0.80;;;;;;;;;;5041757;28;20052;-81
2022/10/25 11:25:29;;;;;;;3.55;0.80;;;;;;;;;;5053099;28;20124;-81
2022/10/25 11:28:01;;;;;;;4.00;1.10;;;;;;;;;;5046282;28;20025;-80
2022/10/25 11:30:31;;;;;;;5.47;1.00;;;;;;;;;;5039455;28;20028;-81
2022/10/25 11:33:04;;;;;;;2.33;0.80;;;;;;;;;;5053025;28;20037;-82
2022/10/25 11:35:35;;;;;;;2.38;0.80;;;;;;;;;;5043269;28;20090;-81
2022/10/25 11:38:17;;;;;;;4.90;0.93;;;;;;;;;;5042705;28;20160;-82
2022/10/25 11:40:54;;;;;;;2.38;0.80;;;;;;;;;;5041596;28;20438;-83
2022/10/25 11:43:39;;;;;;;1.70;0.57;;;;;;;;;;5041916;28;20025;-80
2022/10/25 11:46:10;;;;;;;4.97;0.80;;;;;;;;;;5056963;28;20022;-80
2022/10/25 11:48:36;;;;;;;1.67;0.65;;;;;;;;;;5026995;28;20171;-80
2022/10/25 11:51:11;;;;;;;2.22;0.75;;;;;;;;;;5047849;28;20526;-81
2022/10/25 11:53:40;;;;;;;1.73;0.80;;;;;;;;;;5033103;28;20029;-81
2022/10/25 11:56:11;;;;;;;3.08;1.02;;;;;;;;;;5047403;28;20032;-80
2022/10/25 11:59:10;;;;;;;2.28;0.77;;;;;;;;;;5041214;28;20028;-81
2022/10/25 12:01:36;;;;;;;2.40;0.80;;;;;;;;;;4955010;28;20480;-80
2022/10/25 12:04:21;;;;;;;1.80;0.70;;;;;;;;;;4958642;28;20060;-80
2022/10/25 12:07:02;;;;;;;2.80;0.90;;;;;;;;;;4959379;29;20024;-80
2022/10/25 12:09:37;;;;;;;2.13;0.70;;;;;;;;;;4953853;29;20047;-81
2022/10/25 12:12:09;;;;;;;2.42;0.52;;;;;;;;;;4961513;28;20046;-82
2022/10/25 12:14:40;;;;;;;4.25;1.10;;;;;;;;;;4962395;29;20038;-80
2022/10/25 12:17:12;;;;;;;2.70;0.90;;;;;;;;;;4962732;28;20117;-81
2022/10/25 12:19:43;;;;;;;2.85;0.70;;;;;;;;;;4946873;29;20030;-81
2022/10/25 12:22:14;;;;;;;2.30;0.60;;;;;;;;;;4963312;29;20023;-82
2022/10/25 12:24:43;;;;;;;2.90;0.93;;;;;;;;;;4957312;28;20038;-83
2022/10/25 12:27:10;;;;;;;2.13;0.60;;;;;;;;;;4946297;28;20041;-81
2022/10/25 12:29:41;;;;;;;2.38;0.85;;;;;;;;;;4962792;28;20035;-81
2022/10/25 12:32:26;;;;;;;2.58;0.70;;;;;;;;;;4946281;29;20058;-81
2022/10/25 12:34:53;;;;;;;2.38;0.77;;;;;;;;;;4947084;29;20027;-80
2022/10/25 12:37:28;;;;;;;2.38;0.88;;;;;;;;;;4982834;28;20053;-83
2022/10/25 12:39:55;;;;;;;4.95;1.55;;;;;;;;;;5023640;28;20018;-80
2022/10/25 12:42:24;;;;;;;2.40;0.85;;;;;;;;;;5022401;28;20022;-81
2022/10/25 12:44:57;;;;;;;2.72;0.80;;;;;;;;;;5022440;28;20033;-81
2022/10/25 12:47:34;;;;;;;2.50;1.00;;;;;;;;;;5022629;28;20517;-81
2022/10/25 12:50:03;;;;;;;2.60;0.88;;;;;;;;;;5040784;28;20085;-81
2022/10/25 12:52:32;;;;;;;2.17;0.70;;;;;;;;;;5042841;28;20026;-81
2022/10/25 12:55:05;;;;;;;3.08;0.80;;;;;;;;;;5040103;28;20060;-81
2022/10/25 12:57:34;;;;;;;2.17;0.80;;;;;;;;;;5041073;28;20030;-80
2022/10/25 13:00:03;;;;;;;2.58;1.05;;;;;;;;;;5056947;28;20092;-81
2022/10/25 13:02:35;;;;;;;2.88;0.73;;;;;;;;;;5052313;28;20552;-82
2022/10/25 13:05:01;;;;;;;3.80;0.93;;;;;;;;;;5043624;28;20037;-81
2022/10/25 13:07:30;;;;;;;3.67;1.00;;;;;;;;;;5042332;28;20022;-82
2022/10/25 13:10:01;;;;;;;2.38;0.77;;;;;;;;;;5043077;28;20030;-81
2022/10/25 13:12:29;;;;;;;4.50;0.98;;;;;;;;;;5040277;28;20025;-81
2022/10/25 13:14:57;;;;;;;2.38;0.73;;;;;;;;;;5041754;28;20085;-81
2022/10/25 13:17:23;;;;;;;2.50;1.13;;;;;;;;;;5041897;28;20081;-81
2022/10/25 13:19:54;;;;;;;3.40;1.00;;;;;;;;;;5041988;28;20029;-81
2022/10/25 13:22:38;;;;;;;4.53;0.93;;;;;;;;;;5039781;28;20081;-81
2022/10/25 13:25:08;;;;;;;2.97;0.90;;;;;;;;;;5022914;28;20062;-82
2022/10/25 13:27:34;;;;;;;2.13;0.68;;;;;;;;;;5026737;28;20026;-81
2022/10/25 13:30:03;;;;;;;2.70;0.80;;;;;;;;;;5033327;28;20024;-80
2022/10/25 13:32:30;;;;;;;2.78;0.90;;;;;;;;;;5042586;28;20033;-81
2022/10/25 13:35:01;;;;;;;1.73;0.70;;;;;;;;;;5024451;28;20071;-81
2022/10/25 13:37:30;;;;;;;4.00;1.08;;;;;;;;;;5041639;28;20056;-82
2022/10/25 13:39:57;;;;;;;3.63;1.10;;;;;;;;;;5023775;28;20487;-81
2022/10/25 13:42:31;;;;;;;3.75;0.95;;;;;;;;;;5023227;28;20103;-81
2022/10/25 13:45:03;;;;;;;3.47;0.90;;;;;;;;;;5036625;28;20060;-81
2022/10/25 13:47:44;;;;;;;5.63;1.10;;;;;;;;;;5028727;28;20096;-81
2022/10/25 13:50:28;;;;;;;2.88;1.10;;;;;;;;;;5027295;28;20406;-81
2022/10/25 13:53:02;;;;;;;3.13;1.00;;;;;;;;;;5027074;28;20022;-81
2022/10/25 13:55:36;;;;;;;5.47;1.40;;;;;;;;;;5040291;28;20034;-82
2022/10/25 13:58:22;;;;;;;2.65;0.80;;;;;;;;;;5022575;28;20095;-81
2022/10/25 14:00:50;;;;;;;2.42;0.93;;;;;;;;;;5025710;28;20026;-81
2022/10/25 14:03:16;;;;;;;4.97;0.98;;;;;;;;;;5042989;28;20441;-81
2022/10/25 14:05:54;;;;;;;2.05;0.70;;;;;;;;;;5043259;28;20103;-81
2022/10/25 14:08:28;;;;;;;2.35;0.70;;;;;;;;;;5028336;28;20053;-81
2022/10/25 14:10:54;;;;;;;2.83;0.85;;;;;;;;;;5050575;28;20611;-81
2022/10/25 14:13:44;;;;;;;2.63;0.80;;;;;;;;;;5051477;28;20030;-81
2022/10/25 14:16:17;;;;;;;3.15;1.10;;;;;;;;;;5029540;28;20026;-80
2022/10/25 14:18:43;;;;;;;2.95;0.70;;;;;;;;;;5029099;28;20033;-81
2022/10/25 14:21:11;;;;;;;2.72;0.82;;;;;;;;;;5049925;28;20040;-80
2022/10/25 14:23:37;;;;;;;3.35;0.80;;;;;;;;;;5048862;28;20038;-82
2022/10/25 14:26:05;;;;;;;2.78;0.68;;;;;;;;;;5050226;28;20033;-81
2022/10/25 14:28:34;;;;;;;3.85;0.95;;;;;;;;;;5048468;28;20056;-81
2022/10/25 14:31:01;;;;;;;3.85;0.93;;;;;;;;;;5047590;28;20098;-82
2022/10/25 14:33:27;;;;;;;2.70;1.10;;;;;;;;;;5046562;28;20060;-80
2022/10/25 14:35:55;;;;;;;4.13;1.08;;;;;;;;;;5049393;28;20051;-82
2022/10/25 14:38:31;;;;;;;1.80;0.60;;;;;;;;;;5050903;28;20030;-82
2022/10/25 14:40:58;;;;;;;2.92;0.80;;;;;;;;;;5053768;28;20060;-82
2022/10/25 14:43:29;;;;;;;3.30;0.93;;;;;;;;;;5058420;28;20069;-80
2022/10/25 14:45:59;;;;;;;3.33;1.25;;;;;;;;;;5057919;28;20033;-81
2022/10/25 14:48:25;;;;;;;2.17;0.70;;;;;;;;;;5036686;28;20030;-81
2022/10/25 14:50:56;;;;;;;2.22;0.80;;;;;;;;;;5049763;28;20447;-81
2022/10/25 14:53:22;;;;;;;2.65;0.70;;;;;;;;;;5043088;28;20029;-80
2022/10/25 14:55:57;;;;;;;2.25;0.70;;;;;;;;;;5039556;28;20040;-81